Time;durP1;ratioP1;P1;durP2;ratioP2;P2;SDS_P1;SDS_P2;PMS_P1;PMS_P2;Temp;Humidity;BMP_temperature;BMP_pressure;BME280_temperature;BME280_humidity;BME280_pressure;Samples;Min_cycle;Max_cycle;Signal;HPM_P1;HPM_P2
2022/07/28 00:01:51;;;;;;;2.15;0.70;;;22.30;48.80;;;;;;5084461;28;20115;-64
2022/07/28 00:04:17;;;;;;;1.95;0.90;;;22.30;48.80;;;;;;5087128;28;20042;-64
2022/07/28 00:06:42;;;;;;;4.05;1.05;;;22.20;48.80;;;;;;5070502;28;20518;-64
2022/07/28 00:09:08;;;;;;;2.00;0.73;;;22.20;48.90;;;;;;5066352;28;20035;-64
2022/07/28 00:11:33;;;;;;;1.98;1.08;;;22.20;48.90;;;;;;5080525;28;20032;-64
2022/07/28 00:13:59;;;;;;;1.67;0.75;;;22.20;48.90;;;;;;5086975;28;20058;-64
2022/07/28 00:16:24;;;;;;;2.70;1.08;;;22.20;48.90;;;;;;5074058;28;20033;-64
2022/07/28 00:18:50;;;;;;;2.33;0.95;;;22.20;49.00;;;;;;5066268;28;20504;-64
2022/07/28 00:21:15;;;;;;;3.50;1.15;;;22.20;49.00;;;;;;5077432;28;20028;-64
2022/07/28 00:23:41;;;;;;;1.98;1.02;;;22.20;49.00;;;;;;5086984;28;20028;-64
2022/07/28 00:26:07;;;;;;;3.05;1.00;;;22.20;49.00;;;;;;5076745;28;20048;-65
2022/07/28 00:28:33;;;;;;;1.58;1.10;;;22.10;48.90;;;;;;5066241;28;20388;-64
2022/07/28 00:30:58;;;;;;;1.90;0.80;;;22.10;48.90;;;;;;5072906;28;20067;-64
2022/07/28 00:33:24;;;;;;;1.65;0.73;;;22.20;48.90;;;;;;5086559;28;20052;-65
2022/07/28 00:35:49;;;;;;;2.05;0.90;;;22.10;48.80;;;;;;5081689;28;20025;-64
2022/07/28 00:38:15;;;;;;;1.75;1.00;;;22.10;48.80;;;;;;5066625;28;20430;-64
2022/07/28 00:43:25;;;;;;;3.92;0.93;;;22.10;48.80;;;;;;5086246;28;20082;-64
2022/07/28 00:45:50;;;;;;;1.70;1.08;;;22.10;48.80;;;;;;5082700;28;20040;-64
2022/07/28 00:48:16;;;;;;;1.77;0.70;;;22.10;48.80;;;;;;5066674;28;20665;-64
2022/07/28 00:50:41;;;;;;;2.35;1.17;;;22.10;48.80;;;;;;5067090;28;20036;-64
2022/07/28 00:53:07;;;;;;;1.35;0.82;;;22.10;48.80;;;;;;5085166;28;20036;-64
2022/07/28 00:55:32;;;;;;;1.92;1.00;;;22.10;48.80;;;;;;5086375;28;20036;-64
2022/07/28 00:57:58;;;;;;;1.75;0.75;;;22.10;48.80;;;;;;5064874;28;20028;-64
2022/07/28 01:00:24;;;;;;;2.17;0.85;;;22.10;48.80;;;;;;5064503;28;20032;-64
2022/07/28 01:02:49;;;;;;;1.23;0.70;;;22.10;48.80;;;;;;5082481;28;20020;-64
2022/07/28 01:05:15;;;;;;;1.45;0.80;;;22.00;48.70;;;;;;5085385;28;20506;-64
2022/07/28 01:07:52;;;;;;;4.63;0.90;;;22.00;48.70;;;;;;5070454;28;20024;-65
2022/07/28 01:10:30;;;;;;;2.05;0.77;;;22.00;48.70;;;;;;5066008;28;20040;-64
2022/07/28 01:13:03;;;;;;;1.80;0.93;;;22.00;48.70;;;;;;5084352;28;20024;-65
2022/07/28 01:15:35;;;;;;;2.55;1.00;;;22.00;48.70;;;;;;5072150;28;20047;-65
2022/07/28 01:18:17;;;;;;;1.17;0.80;;;22.00;48.70;;;;;;5072665;28;20074;-65
2022/07/28 01:20:49;;;;;;;2.80;1.15;;;22.00;48.70;;;;;;5068327;28;20031;-65
2022/07/28 01:23:28;;;;;;;1.02;0.70;;;22.00;48.70;;;;;;5087043;28;20085;-64
2022/07/28 01:26:38;;;;;;;1.52;0.93;;;21.90;48.70;;;;;;5088478;28;20506;-64
2022/07/28 01:29:46;;;;;;;1.77;0.90;;;22.00;48.70;;;;;;5049240;28;20043;-64
2022/07/28 01:32:22;;;;;;;1.00;0.90;;;22.00;48.70;;;;;;5055439;28;21603;-64
2022/07/28 01:35:19;;;;;;;1.40;0.75;;;21.90;48.80;;;;;;5068620;28;20037;-65
2022/07/28 01:37:46;;;;;;;1.95;0.60;;;22.00;48.80;;;;;;5067365;28;20021;-64
2022/07/28 01:40:14;;;;;;;1.30;0.70;;;21.90;48.70;;;;;;5067802;28;20029;-64
2022/07/28 01:42:42;;;;;;;1.10;0.93;;;21.90;48.80;;;;;;5068146;28;20032;-64
2022/07/28 01:45:08;;;;;;;2.08;0.90;;;21.90;48.80;;;;;;5066392;28;20686;-64
2022/07/28 01:47:34;;;;;;;1.25;0.73;;;21.90;48.80;;;;;;5067893;28;20029;-64
2022/07/28 01:50:02;;;;;;;1.85;0.77;;;21.90;48.80;;;;;;5067312;28;20028;-64
2022/07/28 01:52:28;;;;;;;2.30;1.00;;;21.90;48.80;;;;;;5067575;28;20039;-64
2022/07/28 01:54:54;;;;;;;3.67;1.23;;;21.90;48.80;;;;;;5067719;28;20021;-64
2022/07/28 01:57:20;;;;;;;4.68;1.27;;;21.90;48.80;;;;;;5067701;28;20449;-65
2022/07/28 01:59:45;;;;;;;1.85;1.02;;;21.90;48.80;;;;;;5067872;28;20029;-64
2022/07/28 02:02:11;;;;;;;2.25;1.17;;;21.80;48.80;;;;;;5068769;28;20033;-64
2022/07/28 02:04:37;;;;;;;1.13;0.80;;;21.80;48.80;;;;;;5067558;28;20394;-64
2022/07/28 02:07:03;;;;;;;1.33;0.68;;;21.80;48.80;;;;;;5067389;28;20032;-64
2022/07/28 02:09:28;;;;;;;2.50;0.90;;;21.80;48.80;;;;;;5067224;28;20029;-64
2022/07/28 02:11:54;;;;;;;4.78;1.17;;;21.80;48.80;;;;;;5065910;28;20036;-64
2022/07/28 02:14:23;;;;;;;2.05;0.93;;;21.80;48.70;;;;;;5068025;28;20561;-64
2022/07/28 02:16:51;;;;;;;1.55;0.70;;;21.80;48.70;;;;;;5069254;28;20125;-64
2022/07/28 02:19:17;;;;;;;1.15;0.60;;;21.80;48.70;;;;;;5068395;28;20546;-64
2022/07/28 02:21:46;;;;;;;2.33;0.80;;;21.80;48.70;;;;;;5067414;28;20028;-64
2022/07/28 02:24:11;;;;;;;1.67;0.88;;;21.80;48.70;;;;;;5067112;28;20032;-64
2022/07/28 02:26:40;;;;;;;2.25;0.95;;;21.70;48.70;;;;;;5050793;28;20090;-64
2022/07/28 02:29:05;;;;;;;1.38;0.80;;;21.80;48.80;;;;;;5066837;28;20107;-65
2022/07/28 02:31:35;;;;;;;2.65;0.75;;;21.70;48.70;;;;;;5067166;28;20071;-65
2022/07/28 02:34:00;;;;;;;3.38;0.70;;;21.70;48.70;;;;;;5068448;28;20028;-65
2022/07/28 02:36:29;;;;;;;3.25;0.93;;;21.70;48.70;;;;;;5066930;28;20094;-64
2022/07/28 02:38:55;;;;;;;2.58;0.90;;;21.70;48.70;;;;;;5066683;28;20032;-64
2022/07/28 02:41:25;;;;;;;1.05;0.70;;;21.70;48.70;;;;;;5066938;28;20407;-63
2022/07/28 02:43:52;;;;;;;2.55;0.70;;;21.70;48.70;;;;;;5066742;28;20039;-64
2022/07/28 02:46:19;;;;;;;3.92;1.10;;;21.70;48.70;;;;;;5067416;28;20048;-64
2022/07/28 02:48:46;;;;;;;1.70;0.80;;;21.70;48.70;;;;;;5067616;28;20116;-64
2022/07/28 02:51:11;;;;;;;2.08;0.88;;;21.70;48.70;;;;;;5066757;28;20552;-64
2022/07/28 02:53:36;;;;;;;1.33;0.80;;;21.70;48.70;;;;;;5066710;28;20037;-64
2022/07/28 02:56:02;;;;;;;2.20;0.80;;;21.70;48.60;;;;;;5057481;28;20028;-64
2022/07/28 02:58:28;;;;;;;2.70;1.08;;;21.60;48.50;;;;;;5066304;28;20471;-63
2022/07/28 03:00:54;;;;;;;1.75;0.93;;;21.60;48.50;;;;;;5066666;28;20028;-64
2022/07/28 03:03:19;;;;;;;1.70;0.73;;;21.60;48.60;;;;;;5068535;28;20036;-64
2022/07/28 03:05:45;;;;;;;2.05;0.82;;;21.60;48.50;;;;;;5067436;28;20036;-64
2022/07/28 03:08:11;;;;;;;1.08;0.70;;;21.60;48.50;;;;;;5068645;28;20033;-63
2022/07/28 03:10:36;;;;;;;1.92;0.80;;;21.60;48.50;;;;;;5067832;28;20055;-64
2022/07/28 03:13:02;;;;;;;1.73;0.80;;;21.60;48.60;;;;;;5067318;28;20039;-64
2022/07/28 03:15:28;;;;;;;2.13;0.95;;;21.50;48.60;;;;;;5068847;28;20029;-64
2022/07/28 03:17:54;;;;;;;3.30;0.98;;;21.60;48.60;;;;;;5067756;28;20051;-64
2022/07/28 03:20:19;;;;;;;3.15;0.98;;;21.60;48.60;;;;;;5067703;28;20024;-64
2022/07/28 03:22:45;;;;;;;2.10;1.08;;;21.50;48.60;;;;;;5067687;28;20029;-64
2022/07/28 03:25:21;;;;;;;2.47;1.02;;;21.50;48.60;;;;;;5067351;28;20556;-64
2022/07/28 03:27:47;;;;;;;1.13;0.80;;;21.50;48.60;;;;;;5066166;28;20112;-64
2022/07/28 03:30:14;;;;;;;1.77;0.85;;;21.50;48.70;;;;;;5066767;28;20100;-64
2022/07/28 03:32:41;;;;;;;1.42;0.80;;;21.50;48.60;;;;;;5063135;28;20040;-64
2022/07/28 03:35:07;;;;;;;1.27;0.90;;;21.50;48.70;;;;;;5066349;28;20479;-64
2022/07/28 03:37:44;;;;;;;1.38;1.10;;;21.50;48.70;;;;;;5067054;28;20158;-64
2022/07/28 03:40:10;;;;;;;1.83;1.20;;;21.50;48.70;;;;;;5066867;28;20023;-65
2022/07/28 03:42:36;;;;;;;1.33;0.80;;;21.50;48.70;;;;;;5067177;28;20100;-64
2022/07/28 03:45:01;;;;;;;1.80;0.80;;;21.50;48.70;;;;;;5065455;28;20032;-64
2022/07/28 03:47:27;;;;;;;2.75;0.93;;;21.40;48.60;;;;;;5065580;28;20036;-63
2022/07/28 03:49:52;;;;;;;2.65;1.00;;;21.40;48.60;;;;;;5066338;28;20032;-64
2022/07/28 03:52:18;;;;;;;1.90;0.65;;;21.40;48.70;;;;;;5066976;28;20430;-65
2022/07/28 03:54:44;;;;;;;1.92;0.93;;;21.40;48.70;;;;;;5065230;28;20025;-64
2022/07/28 03:57:10;;;;;;;3.00;1.20;;;21.40;48.70;;;;;;5066631;28;20024;-64
2022/07/28 03:59:35;;;;;;;2.03;1.20;;;21.50;48.80;;;;;;5066178;28;20056;-63
2022/07/28 04:02:00;;;;;;;2.65;0.75;;;21.40;48.70;;;;;;5066665;28;20035;-64
2022/07/28 04:04:26;;;;;;;2.80;1.10;;;21.40;49.40;;;;;;5065911;28;20032;-64
2022/07/28 04:06:52;;;;;;;1.20;0.80;;;21.40;48.80;;;;;;5066155;28;20082;-64
2022/07/28 04:09:17;;;;;;;2.53;0.95;;;21.40;48.80;;;;;;5066749;28;20487;-64
2022/07/28 04:11:43;;;;;;;1.27;0.93;;;21.40;48.90;;;;;;5066330;28;20033;-63
2022/07/28 04:14:08;;;;;;;2.58;0.98;;;21.40;48.80;;;;;;5066646;28;20047;-64
2022/07/28 04:16:34;;;;;;;1.73;0.85;;;21.30;48.80;;;;;;5066706;28;20036;-64
2022/07/28 04:18:59;;;;;;;3.38;1.25;;;21.40;48.90;;;;;;5066435;28;20031;-63
2022/07/28 04:21:25;;;;;;;2.75;0.90;;;21.30;48.90;;;;;;5065036;28;20028;-64
2022/07/28 04:23:50;;;;;;;1.77;0.80;;;21.30;48.90;;;;;;5067397;28;20028;-64
2022/07/28 04:26:16;;;;;;;3.67;0.90;;;21.30;48.90;;;;;;5066973;28;20060;-64
2022/07/28 04:28:42;;;;;;;2.20;0.82;;;21.30;48.90;;;;;;5065301;28;20116;-64
2022/07/28 04:31:08;;;;;;;2.78;1.20;;;21.30;48.90;;;;;;5066947;28;20036;-64
2022/07/28 04:33:33;;;;;;;4.28;1.40;;;21.30;49.00;;;;;;5066646;28;20676;-65
2022/07/28 04:36:00;;;;;;;2.55;1.05;;;21.30;49.00;;;;;;5065383;28;20028;-64
2022/07/28 04:38:25;;;;;;;4.05;1.58;;;21.30;49.10;;;;;;5066158;28;20098;-64
2022/07/28 04:40:51;;;;;;;2.25;0.82;;;21.30;49.10;;;;;;5066615;28;20064;-63
2022/07/28 04:43:16;;;;;;;3.25;1.00;;;21.30;49.20;;;;;;5066062;28;20346;-64
2022/07/28 04:45:49;;;;;;;1.23;0.82;;;21.30;49.30;;;;;;5066165;28;20027;-64
2022/07/28 04:48:15;;;;;;;1.75;0.85;;;21.30;49.30;;;;;;5070189;28;20029;-64
2022/07/28 04:50:41;;;;;;;1.00;0.70;;;21.30;49.50;;;;;;5069489;28;20047;-64
2022/07/28 04:53:06;;;;;;;2.25;1.00;;;21.30;49.50;;;;;;5070561;28;20024;-64
2022/07/28 04:55:32;;;;;;;1.55;1.00;;;21.30;49.70;;;;;;5070317;28;20051;-65
2022/07/28 04:57:57;;;;;;;2.13;1.08;;;21.30;49.70;;;;;;5070226;28;20475;-65
2022/07/28 05:00:23;;;;;;;2.40;1.42;;;21.30;49.80;;;;;;5069836;28;20024;-64
2022/07/28 05:02:49;;;;;;;2.25;0.98;;;21.30;49.80;;;;;;5069346;28;20120;-64
2022/07/28 05:05:14;;;;;;;3.22;1.58;;;21.30;49.90;;;;;;5068571;28;20226;-64
2022/07/28 05:07:40;;;;;;;2.15;1.10;;;21.30;50.00;;;;;;5070373;28;20032;-64
2022/07/28 05:10:06;;;;;;;3.38;1.15;;;21.30;50.00;;;;;;5069672;28;20028;-65
2022/07/28 05:12:32;;;;;;;3.75;1.60;;;21.30;50.10;;;;;;5070117;28;20085;-64
2022/07/28 05:14:58;;;;;;;1.30;1.08;;;21.30;50.20;;;;;;5069949;28;20029;-64
2022/07/28 05:17:24;;;;;;;1.65;0.95;;;21.40;50.20;;;;;;5069811;28;20438;-64
2022/07/28 05:19:50;;;;;;;3.65;1.20;;;21.30;50.20;;;;;;5069664;28;20489;-64
2022/07/28 05:22:16;;;;;;;1.38;1.10;;;21.30;50.30;;;;;;5069678;28;20119;-64
2022/07/28 05:24:41;;;;;;;2.17;1.20;;;21.30;50.40;;;;;;5068535;28;20074;-64
2022/07/28 05:27:07;;;;;;;1.83;1.13;;;21.30;50.40;;;;;;5069081;28;20024;-64
2022/07/28 05:29:33;;;;;;;1.35;0.85;;;21.30;50.50;;;;;;5069509;28;20027;-64
2022/07/28 05:31:58;;;;;;;2.15;1.38;;;21.30;50.60;;;;;;5069626;28;20091;-64
2022/07/28 05:34:24;;;;;;;3.60;1.20;;;21.30;50.70;;;;;;5069451;28;20033;-63
2022/07/28 05:36:49;;;;;;;2.35;1.30;;;21.30;50.80;;;;;;5042308;28;20092;-64
2022/07/28 05:39:15;;;;;;;2.75;1.50;;;21.40;50.90;;;;;;5080265;28;20059;-64
2022/07/28 05:41:40;;;;;;;3.13;1.30;;;21.40;51.00;;;;;;5069303;28;20032;-63
2022/07/28 05:44:06;;;;;;;2.13;1.25;;;21.40;51.00;;;;;;5069459;22;20655;-46
2022/07/28 05:46:31;;;;;;;2.53;1.20;;;21.40;51.00;;;;;;5066986;28;20029;-50
2022/07/28 05:48:57;;;;;;;2.83;1.42;;;21.40;51.00;;;;;;5031788;28;20041;-49
2022/07/28 05:51:23;;;;;;;1.60;1.10;;;21.40;51.00;;;;;;5067073;28;20036;-46
2022/07/28 05:53:48;;;;;;;3.47;1.25;;;21.40;50.90;;;;;;5067655;28;20040;-51
2022/07/28 05:56:14;;;;;;;1.25;1.10;;;21.40;50.90;;;;;;5067353;28;20025;-51
2022/07/28 05:58:39;;;;;;;2.72;1.50;;;21.40;50.90;;;;;;5081270;28;20040;-48
2022/07/28 06:01:05;;;;;;;2.85;1.42;;;21.40;50.80;;;;;;5066890;28;20063;-48
2022/07/28 06:03:31;;;;;;;1.88;1.42;;;21.40;50.80;;;;;;5066652;28;20033;-49
2022/07/28 06:05:56;;;;;;;2.83;1.40;;;21.40;50.80;;;;;;5067046;28;20028;-48
2022/07/28 06:08:23;;;;;;;2.28;1.45;;;21.40;50.80;;;;;;5067403;28;20059;-48
2022/07/28 06:11:00;;;;;;;1.90;1.00;;;21.40;50.80;;;;;;5081838;28;20086;-50
2022/07/28 06:13:26;;;;;;;2.88;1.80;;;21.40;50.80;;;;;;5029203;28;20098;-48
2022/07/28 06:15:51;;;;;;;1.88;1.10;;;21.30;50.80;;;;;;5047113;28;20033;-48
2022/07/28 06:18:18;;;;;;;2.95;1.27;;;21.40;50.90;;;;;;5066248;28;20604;-50
2022/07/28 06:20:44;;;;;;;2.88;1.20;;;21.40;50.80;;;;;;5065937;28;20054;-48
2022/07/28 06:23:10;;;;;;;2.50;1.42;;;21.30;50.80;;;;;;5067103;28;20400;-49
2022/07/28 06:25:35;;;;;;;4.03;1.25;;;21.30;50.80;;;;;;5066452;28;20112;-48
2022/07/28 06:28:01;;;;;;;5.10;1.60;;;21.40;50.90;;;;;;5066823;28;20036;-48
2022/07/28 06:30:27;;;;;;;4.53;1.40;;;21.30;50.90;;;;;;5065275;28;20115;-48
2022/07/28 06:32:54;;;;;;;3.45;1.50;;;21.40;50.90;;;;;;5048347;28;20116;-45
2022/07/28 06:35:20;;;;;;;3.67;1.70;;;21.40;51.00;;;;;;5066549;28;20021;-49
2022/07/28 06:37:46;;;;;;;2.97;1.40;;;21.30;51.00;;;;;;5066438;28;20120;-49
2022/07/28 06:40:12;;;;;;;2.90;1.58;;;21.40;50.90;;;;;;5065398;28;20031;-47
2022/07/28 06:42:38;;;;;;;2.95;1.50;;;21.40;51.00;;;;;;5048192;28;20649;-48
2022/07/28 06:45:05;;;;;;;3.00;1.42;;;21.30;51.00;;;;;;5065785;28;20170;-49
2022/07/28 06:47:30;;;;;;;2.35;1.40;;;21.30;50.90;;;;;;5048113;28;20036;-48
2022/07/28 06:49:55;;;;;;;4.20;1.58;;;21.40;51.00;;;;;;5047616;28;20044;-47
2022/07/28 06:52:21;;;;;;;4.00;1.17;;;21.40;51.00;;;;;;5065959;28;20029;-48
2022/07/28 06:54:49;;;;;;;3.95;1.33;;;21.40;51.00;;;;;;5065872;28;20598;-47
2022/07/28 06:57:15;;;;;;;2.63;1.60;;;21.40;51.00;;;;;;5065594;28;20063;-49
2022/07/28 06:59:40;;;;;;;3.50;1.60;;;21.40;51.00;;;;;;5064992;28;20049;-50
2022/07/28 07:02:06;;;;;;;2.60;1.40;;;21.40;50.90;;;;;;5065482;28;20029;-49
2022/07/28 07:04:32;;;;;;;3.75;1.75;;;21.40;50.80;;;;;;5047867;28;20039;-49
2022/07/28 07:06:57;;;;;;;3.58;1.70;;;21.40;51.00;;;;;;5047795;28;20033;-49
2022/07/28 07:09:23;;;;;;;4.20;2.00;;;21.30;51.20;;;;;;5064969;28;20039;-44
2022/07/28 07:11:48;;;;;;;4.50;2.20;;;21.40;51.30;;;;;;5065075;28;20532;-47
2022/07/28 07:14:14;;;;;;;5.78;2.60;;;21.30;51.40;;;;;;5065256;28;20036;-49
2022/07/28 07:16:39;;;;;;;3.08;2.10;;;21.30;51.00;;;;;;5065391;28;20052;-48
2022/07/28 07:19:05;;;;;;;3.20;2.13;;;21.30;51.10;;;;;;5064752;28;20806;-49
2022/07/28 07:21:30;;;;;;;3.22;2.47;;;21.40;51.00;;;;;;5065369;28;20054;-49
2022/07/28 07:23:57;;;;;;;4.70;2.53;;;21.40;50.10;;;;;;5065463;28;20037;-46
2022/07/28 07:26:22;;;;;;;3.22;2.13;;;21.30;50.70;;;;;;5065859;28;20493;-47
2022/07/28 07:28:48;;;;;;;5.25;2.72;;;21.30;50.90;;;;;;5064399;28;20063;-47
2022/07/28 07:31:13;;;;;;;2.50;2.20;;;21.40;50.60;;;;;;5064930;28;20040;-47
2022/07/28 07:33:39;;;;;;;6.20;2.38;;;21.30;50.70;;;;;;5047208;28;20384;-48
2022/07/28 07:36:04;;;;;;;4.10;2.20;;;21.30;47.70;;;;;;5047550;28;20029;-48
2022/07/28 07:38:30;;;;;;;4.43;2.20;;;21.30;49.90;;;;;;5064165;28;20050;-49
2022/07/28 07:40:56;;;;;;;4.00;2.40;;;21.40;50.30;;;;;;5064654;28;20458;-50
2022/07/28 07:43:21;;;;;;;5.03;2.47;;;21.40;50.60;;;;;;5065231;28;20036;-48
2022/07/28 07:45:46;;;;;;;6.13;2.17;;;21.30;50.90;;;;;;5064863;28;20560;-49
2022/07/28 07:48:12;;;;;;;3.67;1.88;;;21.40;48.40;;;;;;5064881;28;20071;-48
2022/07/28 07:50:37;;;;;;;4.07;2.28;;;21.30;50.10;;;;;;5064004;28;20033;-48
2022/07/28 07:53:03;;;;;;;5.35;2.40;;;21.40;50.20;;;;;;5064612;28;20163;-48
2022/07/28 07:55:29;;;;;;;3.13;1.83;;;21.40;50.10;;;;;;5064273;28;20055;-49
2022/07/28 07:57:54;;;;;;;4.28;2.45;;;21.40;49.90;;;;;;5065069;28;20098;-47
2022/07/28 08:00:20;;;;;;;3.40;2.42;;;21.40;50.30;;;;;;5064683;28;20032;-49
2022/07/28 08:02:45;;;;;;;3.72;2.00;;;21.40;50.80;;;;;;5064756;28;20025;-49
2022/07/28 08:05:11;;;;;;;2.75;1.98;;;21.40;51.00;;;;;;5064588;28;20024;-49
2022/07/28 08:07:36;;;;;;;5.30;2.03;;;21.40;51.00;;;;;;5064412;28;20052;-48
2022/07/28 08:10:02;;;;;;;3.45;1.88;;;21.40;50.70;;;;;;5063926;28;20100;-49
2022/07/28 08:12:28;;;;;;;3.10;2.20;;;21.30;50.40;;;;;;5047092;28;20705;-50
2022/07/28 08:14:54;;;;;;;3.60;2.08;;;21.40;50.90;;;;;;5046966;28;20112;-45
2022/07/28 08:17:20;;;;;;;4.93;2.22;;;21.40;51.10;;;;;;5065423;28;20032;-49
2022/07/28 08:19:45;;;;;;;3.28;1.90;;;21.40;51.30;;;;;;5046081;28;20029;-49
2022/07/28 08:22:11;;;;;;;4.38;1.98;;;21.40;50.80;;;;;;5064341;28;20075;-50
2022/07/28 08:24:36;;;;;;;3.10;1.90;;;21.40;50.40;;;;;;5064564;28;20028;-49
2022/07/28 08:27:02;;;;;;;4.25;2.33;;;21.30;48.70;;;;;;5064613;28;20531;-48
2022/07/28 08:29:27;;;;;;;3.05;1.38;;;21.30;47.90;;;;;;5045543;28;20040;-50
2022/07/28 08:31:54;;;;;;;4.13;1.63;;;21.20;46.40;;;;;;5063997;28;20036;-47
2022/07/28 08:34:19;;;;;;;3.85;1.40;;;21.30;47.60;;;;;;5064777;28;20033;-49
2022/07/28 08:36:45;;;;;;;2.42;1.40;;;21.30;48.00;;;;;;5064350;28;20513;-48
2022/07/28 08:39:11;;;;;;;2.70;1.40;;;21.30;48.00;;;;;;5063911;28;20039;-48
2022/07/28 08:42:03;;;;;;;3.45;1.83;;;21.30;48.40;;;;;;5063921;28;20093;-48
2022/07/28 08:45:01;;;;;;;2.42;1.20;;;21.30;49.10;;;;;;5039942;28;20120;-49
2022/07/28 08:47:26;;;;;;;3.90;1.30;;;21.20;45.30;;;;;;4997362;28;20421;-48
2022/07/28 08:49:53;;;;;;;2.72;1.30;;;21.20;47.60;;;;;;5018531;28;20033;-47
2022/07/28 08:52:19;;;;;;;3.22;1.55;;;21.10;44.70;;;;;;5043976;28;20498;-48
2022/07/28 08:54:45;;;;;;;2.45;1.30;;;21.20;47.30;;;;;;5043156;28;20642;-49
2022/07/28 08:57:16;;;;;;;3.80;1.02;;;21.20;47.10;;;;;;5042997;28;20044;-47
2022/07/28 08:59:42;;;;;;;1.63;1.02;;;21.20;46.30;;;;;;5042678;28;20039;-51
2022/07/28 09:02:09;;;;;;;4.07;1.40;;;21.20;47.20;;;;;;5042984;28;20183;-48
2022/07/28 09:04:37;;;;;;;1.30;1.20;;;21.20;47.50;;;;;;5042954;28;20052;-48
2022/07/28 09:07:03;;;;;;;4.18;1.30;;;21.30;48.40;;;;;;5043078;28;20036;-47
2022/07/28 09:09:29;;;;;;;2.53;1.42;;;21.30;47.80;;;;;;5042298;28;20029;-48
2022/07/28 09:11:54;;;;;;;2.17;1.10;;;21.30;48.20;;;;;;5042846;28;20304;-48
2022/07/28 09:14:20;;;;;;;5.30;1.10;;;21.20;44.50;;;;;;5043118;28;20036;-49
2022/07/28 09:16:46;;;;;;;2.35;1.15;;;21.10;46.00;;;;;;5044123;28;20091;-48
2022/07/28 09:19:11;;;;;;;2.55;1.40;;;21.20;45.90;;;;;;5042152;28;20033;-49
2022/07/28 09:21:37;;;;;;;2.38;1.20;;;21.20;47.20;;;;;;5044217;28;20048;-49
2022/07/28 09:24:03;;;;;;;3.67;1.83;;;21.20;46.90;;;;;;5042877;28;20052;-50
2022/07/28 09:26:28;;;;;;;3.40;1.10;;;21.30;46.60;;;;;;5044378;28;20044;-48
2022/07/28 09:28:56;;;;;;;3.78;1.30;;;21.30;47.40;;;;;;5042445;28;20025;-49
2022/07/28 09:31:22;;;;;;;1.77;1.10;;;21.30;45.30;;;;;;5044168;28;20036;-48
2022/07/28 09:34:02;;;;;;;4.05;1.05;;;21.30;45.90;;;;;;5034124;28;20049;-48
2022/07/28 09:36:28;;;;;;;3.92;1.40;;;21.30;47.00;;;;;;5064705;28;20032;-48
2022/07/28 09:38:55;;;;;;;5.15;1.58;;;21.30;44.60;;;;;;5067435;28;20032;-47
2022/07/28 09:41:21;;;;;;;2.65;1.10;;;21.20;44.10;;;;;;5063715;28;20038;-51
2022/07/28 09:43:46;;;;;;;2.10;1.30;;;21.20;46.20;;;;;;5067105;28;20063;-49
2022/07/28 09:46:22;;;;;;;1.45;1.20;;;21.30;46.90;;;;;;5067526;28;20075;-47
2022/07/28 09:48:48;;;;;;;2.08;1.20;;;21.30;43.70;;;;;;5067010;28;20039;-48
2022/07/28 09:51:14;;;;;;;2.63;1.10;;;21.30;46.50;;;;;;5067437;28;20048;-49
2022/07/28 09:53:40;;;;;;;4.53;1.50;;;21.30;46.70;;;;;;5082993;28;20035;-49
2022/07/28 09:56:06;;;;;;;7.35;1.65;;;21.30;45.70;;;;;;5067465;28;20037;-51
2022/07/28 09:58:31;;;;;;;3.95;1.20;;;21.30;46.00;;;;;;5066918;28;20029;-47
2022/07/28 10:01:06;;;;;;;3.33;1.35;;;21.30;44.20;;;;;;5082577;28;20029;-47
2022/07/28 10:03:32;;;;;;;4.47;1.48;;;21.30;45.80;;;;;;5067390;28;20734;-46
2022/07/28 10:05:58;;;;;;;5.20;1.48;;;21.30;46.60;;;;;;5067569;28;20032;-49
2022/07/28 10:08:41;;;;;;;5.20;1.55;;;21.30;44.50;;;;;;5066297;28;20282;-49
2022/07/28 10:11:06;;;;;;;5.28;1.52;;;21.30;44.20;;;;;;5066725;28;20611;-48
2022/07/28 10:13:32;;;;;;;2.67;1.20;;;21.20;42.50;;;;;;5067103;28;20119;-51
2022/07/28 10:16:10;;;;;;;2.50;1.17;;;21.30;45.30;;;;;;5066829;28;20035;-47
2022/07/28 10:18:39;;;;;;;3.38;1.35;;;21.30;45.90;;;;;;5082131;28;20063;-48
2022/07/28 10:21:08;;;;;;;1.42;1.00;;;21.30;44.70;;;;;;5066996;28;20048;-48
2022/07/28 10:23:39;;;;;;;3.90;1.20;;;21.30;43.30;;;;;;5082878;28;20059;-49
2022/07/28 10:26:09;;;;;;;2.25;1.17;;;21.30;44.60;;;;;;5066061;28;20025;-49
2022/07/28 10:28:40;;;;;;;2.30;1.15;;;21.30;44.90;;;;;;5066074;28;20033;-49
2022/07/28 10:31:08;;;;;;;1.88;1.42;;;21.30;44.60;;;;;;5081454;28;20527;-46
2022/07/28 10:33:34;;;;;;;2.30;1.25;;;21.40;45.70;;;;;;5082523;28;20044;-48
2022/07/28 10:35:59;;;;;;;2.53;1.08;;;21.40;45.00;;;;;;5065257;28;20029;-48
2022/07/28 10:38:26;;;;;;;3.15;1.30;;;21.30;43.10;;;;;;5064583;28;20037;-48
2022/07/28 10:40:52;;;;;;;1.45;1.10;;;21.30;45.30;;;;;;5065549;28;20028;-47
2022/07/28 10:43:17;;;;;;;2.10;1.38;;;21.30;45.70;;;;;;5082073;28;20028;-48
2022/07/28 10:45:43;;;;;;;2.10;1.10;;;21.30;46.50;;;;;;5082008;28;20033;-47
2022/07/28 10:48:08;;;;;;;1.13;0.80;;;21.30;46.80;;;;;;5065412;28;20090;-48
2022/07/28 10:50:34;;;;;;;1.88;1.40;;;21.40;46.50;;;;;;5065781;28;20036;-50
2022/07/28 10:53:03;;;;;;;2.88;1.45;;;21.40;46.70;;;;;;5081709;28;20089;-50
2022/07/28 10:55:37;;;;;;;2.45;1.13;;;21.40;43.60;;;;;;5065196;28;20032;-49
2022/07/28 10:58:09;;;;;;;3.38;1.55;;;21.40;44.80;;;;;;5081161;28;20044;-48
2022/07/28 11:00:34;;;;;;;4.53;1.20;;;21.40;44.50;;;;;;5065657;28;20497;-49
2022/07/28 11:03:01;;;;;;;3.35;1.20;;;21.40;45.10;;;;;;5078722;28;20094;-49
2022/07/28 11:05:35;;;;;;;2.72;1.23;;;21.40;45.40;;;;;;5049157;28;20112;-47
2022/07/28 11:08:14;;;;;;;1.98;1.33;;;21.40;45.50;;;;;;5044439;28;20489;-48
2022/07/28 11:10:52;;;;;;;2.85;1.40;;;21.40;44.20;;;;;;5045575;28;20033;-48
2022/07/28 11:13:27;;;;;;;2.25;1.25;;;21.40;44.40;;;;;;5044521;28;20029;-46
2022/07/28 11:15:53;;;;;;;2.15;1.25;;;21.40;45.00;;;;;;5056091;28;20033;-49
2022/07/28 11:18:18;;;;;;;5.00;1.40;;;21.40;45.00;;;;;;5055909;28;20020;-48
2022/07/28 11:20:51;;;;;;;4.18;1.35;;;21.50;44.80;;;;;;5064939;28;20348;-48
2022/07/28 11:23:39;;;;;;;2.55;1.25;;;21.40;45.50;;;;;;5065553;28;20035;-49
2022/07/28 11:26:23;;;;;;;1.88;1.20;;;21.50;45.50;;;;;;5045449;28;20042;-49
2022/07/28 11:29:07;;;;;;;6.95;1.38;;;21.50;43.40;;;;;;5044228;28;20680;-48
2022/07/28 11:31:44;;;;;;;3.20;1.38;;;21.50;43.50;;;;;;5045339;28;20051;-47
2022/07/28 11:34:14;;;;;;;2.63;1.48;;;21.50;44.00;;;;;;5045717;28;20032;-50
2022/07/28 11:37:08;;;;;;;3.42;1.63;;;21.50;43.60;;;;;;5045833;28;20442;-48
2022/07/28 11:39:41;;;;;;;4.10;1.45;;;21.40;42.70;;;;;;5045075;28;20111;-46
2022/07/28 11:42:25;;;;;;;2.28;1.40;;;21.40;44.00;;;;;;5042869;28;20112;-49
2022/07/28 11:44:52;;;;;;;3.60;1.60;;;21.50;44.10;;;;;;5065263;28;20032;-48
2022/07/28 11:47:28;;;;;;;3.55;1.40;;;21.50;42.20;;;;;;5065069;28;20077;-49
2022/07/28 11:50:10;;;;;;;2.28;1.30;;;21.50;43.30;;;;;;5064879;28;20029;-48
2022/07/28 11:52:36;;;;;;;4.60;1.92;;;21.50;43.30;;;;;;5064846;28;20040;-47
2022/07/28 11:55:02;;;;;;;5.10;1.48;;;21.50;42.70;;;;;;5080763;28;20031;-47
2022/07/28 11:57:27;;;;;;;2.38;1.20;;;21.50;43.40;;;;;;5064413;28;20029;-49
2022/07/28 11:59:54;;;;;;;4.32;1.52;;;21.50;43.70;;;;;;5064393;28;20056;-46
2022/07/28 12:02:21;;;;;;;3.17;1.52;;;21.50;44.00;;;;;;5064943;28;20033;-46
2022/07/28 12:04:54;;;;;;;3.65;1.55;;;21.50;44.00;;;;;;5065086;28;20025;-46
2022/07/28 12:07:29;;;;;;;2.97;1.13;;;21.50;44.10;;;;;;5065226;28;20054;-48
2022/07/28 12:09:55;;;;;;;4.43;1.80;;;21.50;43.90;;;;;;5053338;28;20564;-47
2022/07/28 12:12:21;;;;;;;4.10;1.42;;;21.50;43.10;;;;;;5064577;28;20121;-47
2022/07/28 12:14:46;;;;;;;5.00;1.80;;;21.50;43.40;;;;;;5080516;28;20390;-48
2022/07/28 12:17:13;;;;;;;4.05;1.88;;;21.60;43.20;;;;;;5065010;28;20032;-46
2022/07/28 12:19:39;;;;;;;5.47;1.75;;;21.60;42.90;;;;;;5079363;28;20028;-46
2022/07/28 12:22:10;;;;;;;6.78;2.15;;;21.50;43.50;;;;;;5064780;28;20044;-47
2022/07/28 12:24:36;;;;;;;5.93;1.90;;;21.60;43.70;;;;;;5063624;28;20039;-48
2022/07/28 12:27:03;;;;;;;4.65;2.20;;;21.60;41.50;;;;;;5064824;28;20032;-46
2022/07/28 12:29:32;;;;;;;5.72;2.05;;;21.60;43.50;;;;;;5079217;28;20043;-48
2022/07/28 12:31:59;;;;;;;5.65;2.25;;;21.60;43.00;;;;;;5064676;28;20037;-48
2022/07/28 12:34:25;;;;;;;4.90;1.85;;;21.60;43.20;;;;;;5064954;28;20031;-48
2022/07/28 12:36:51;;;;;;;4.50;2.20;;;21.60;43.60;;;;;;5065024;28;20028;-47
2022/07/28 12:39:16;;;;;;;5.00;2.20;;;21.60;43.40;;;;;;5062342;28;20202;-48
2022/07/28 12:41:42;;;;;;;4.47;2.40;;;21.70;42.40;;;;;;5080201;28;20111;-46
2022/07/28 12:44:07;;;;;;;5.30;2.10;;;21.70;41.70;;;;;;5064653;28;20093;-48
2022/07/28 12:46:33;;;;;;;4.65;2.47;;;21.70;42.20;;;;;;5080622;28;20288;-48
2022/07/28 12:48:59;;;;;;;5.18;2.50;;;21.70;42.40;;;;;;5080024;28;20028;-51
2022/07/28 12:51:35;;;;;;;7.15;3.30;;;21.70;42.40;;;;;;5080273;28;20033;-50
2022/07/28 12:54:01;;;;;;;5.60;3.28;;;21.60;42.90;;;;;;5064163;28;20090;-47